createdAt,value
2022-08-23T00:01:33.981Z,100.00
2022-08-23T00:04:05.665Z,100.00
2022-08-23T00:06:32.016Z,100.00
2022-08-23T00:08:58.493Z,100.00
2022-08-23T00:11:29.567Z,100.00
2022-08-23T00:13:56.456Z,100.00
2022-08-23T00:16:24.146Z,100.00
2022-08-23T00:18:50.504Z,100.00
2022-08-23T00:21:17.022Z,100.00
2022-08-23T00:23:43.327Z,100.00
2022-08-23T00:26:09.990Z,100.00
2022-08-23T00:28:36.330Z,100.00
2022-08-23T00:31:03.287Z,100.00
2022-08-23T00:33:30.946Z,100.00
2022-08-23T00:35:57.256Z,100.00
2022-08-23T00:38:33.781Z,100.00
2022-08-23T00:41:02.176Z,100.00
2022-08-23T00:43:30.442Z,100.00
2022-08-23T00:46:02.500Z,100.00
2022-08-23T00:48:29.478Z,100.00
2022-08-23T00:51:01.119Z,100.00
2022-08-23T00:53:28.958Z,100.00
2022-08-23T00:55:57.933Z,100.00
2022-08-23T00:58:24.315Z,100.00
2022-08-23T01:00:52.208Z,100.00
2022-08-23T01:03:19.105Z,100.00
2022-08-23T01:05:50.964Z,100.00
2022-08-23T01:08:19.684Z,100.00
2022-08-23T01:10:49.535Z,100.00
2022-08-23T01:13:18.129Z,100.00
2022-08-23T01:15:46.443Z,100.00
2022-08-23T01:18:14.915Z,100.00
2022-08-23T01:20:43.112Z,100.00
2022-08-23T01:23:19.447Z,100.00
2022-08-23T01:25:45.794Z,100.00
2022-08-23T01:28:12.095Z,100.00
2022-08-23T01:30:40.725Z,100.00
2022-08-23T01:33:07.296Z,100.00
2022-08-23T01:35:36.270Z,100.00
2022-08-23T01:38:02.679Z,100.00
2022-08-23T01:40:30.498Z,100.00
2022-08-23T01:42:56.826Z,100.00
2022-08-23T01:45:23.373Z,100.00
2022-08-23T01:47:49.686Z,100.00
2022-08-23T01:50:16.070Z,100.00
2022-08-23T01:52:46.565Z,100.00
2022-08-23T01:55:14.041Z,100.00
2022-08-23T01:57:43.062Z,100.00
2022-08-23T02:00:15.075Z,100.00
2022-08-23T02:02:41.399Z,100.00
2022-08-23T02:05:08.262Z,100.00
2022-08-23T02:07:34.711Z,100.00
2022-08-23T02:10:01.294Z,100.00
2022-08-23T02:12:29.176Z,100.00
2022-08-23T02:14:56.831Z,100.00
2022-08-23T02:17:23.145Z,100.00
2022-08-23T02:19:49.464Z,100.00
2022-08-23T02:22:15.790Z,100.00
2022-08-23T02:24:43.486Z,100.00
2022-08-23T02:27:10.539Z,100.00
2022-08-23T02:29:39.454Z,100.00
2022-08-23T02:32:08.016Z,100.00
2022-08-23T02:34:36.056Z,100.00
2022-08-23T02:37:02.520Z,100.00
2022-08-23T02:39:29.063Z,100.00
2022-08-23T02:41:55.568Z,100.00
2022-08-23T02:44:21.942Z,100.00
2022-08-23T02:46:48.265Z,100.00
2022-08-23T02:49:16.736Z,100.00
2022-08-23T02:51:43.525Z,100.00
2022-08-23T02:54:09.861Z,100.00
2022-08-23T02:56:36.370Z,100.00
2022-08-23T02:59:03.131Z,100.00
2022-08-23T03:01:30.499Z,100.00
2022-08-23T03:03:57.325Z,100.00
2022-08-23T03:06:26.441Z,100.00
2022-08-23T03:08:53.071Z,100.00
2022-08-23T03:11:19.968Z,100.00
2022-08-23T03:13:46.291Z,100.00
2022-08-23T03:16:13.025Z,100.00
2022-08-23T03:18:39.796Z,100.00
2022-08-23T03:21:06.855Z,100.00
2022-08-23T03:23:35.695Z,100.00
2022-08-23T03:26:02.911Z,100.00
2022-08-23T03:28:29.670Z,100.00
2022-08-23T03:30:56.078Z,100.00
2022-08-23T03:33:22.979Z,100.00
2022-08-23T03:35:49.823Z,100.00
2022-08-23T03:38:16.785Z,100.00
2022-08-23T03:40:44.658Z,100.00
2022-08-23T03:43:11.098Z,100.00
2022-08-23T03:45:37.838Z,100.00
2022-08-23T03:48:04.535Z,100.00
2022-08-23T03:50:30.850Z,100.00
2022-08-23T03:52:57.178Z,100.00
2022-08-23T03:55:23.497Z,100.00
2022-08-23T03:57:51.163Z,100.00
2022-08-23T04:00:20.608Z,100.00
2022-08-23T04:02:48.797Z,100.00
2022-08-23T04:05:15.479Z,100.00
2022-08-23T04:07:41.890Z,100.00
2022-08-23T04:10:09.202Z,100.00
2022-08-23T04:12:35.855Z,100.00
2022-08-23T04:15:03.775Z,100.00
2022-08-23T04:17:32.410Z,100.00
2022-08-23T04:19:59.042Z,100.00
2022-08-23T04:22:25.351Z,100.00
2022-08-23T04:24:51.673Z,100.00
2022-08-23T04:27:18.002Z,100.00
2022-08-23T04:29:44.319Z,100.00
2022-08-23T04:32:12.096Z,100.00
2022-08-23T04:34:39.366Z,100.00
2022-08-23T04:37:09.328Z,100.00
2022-08-23T04:39:36.030Z,100.00
2022-08-23T04:42:13.126Z,100.00
2022-08-23T04:44:41.022Z,100.00
2022-08-23T04:47:07.315Z,100.00
2022-08-23T04:49:35.103Z,100.00
2022-08-23T04:52:01.442Z,100.00
2022-08-23T04:54:27.782Z,100.00
2022-08-23T04:56:54.106Z,100.00
2022-08-23T04:59:20.582Z,100.00
2022-08-23T05:01:46.916Z,100.00
2022-08-23T05:04:13.250Z,100.00
2022-08-23T05:06:40.936Z,100.00
2022-08-23T05:09:07.352Z,100.00
2022-08-23T05:11:33.832Z,100.00
2022-08-23T05:14:00.217Z,100.00
2022-08-23T05:16:26.552Z,100.00
2022-08-23T05:18:52.935Z,100.00
2022-08-23T05:21:20.255Z,100.00
2022-08-23T05:23:50.886Z,100.00
2022-08-23T05:26:21.223Z,100.00
2022-08-23T05:28:48.549Z,100.00
2022-08-23T05:31:16.127Z,100.00
2022-08-23T05:33:42.899Z,100.00
2022-08-23T05:36:10.312Z,100.00
2022-08-23T05:38:36.635Z,100.00
2022-08-23T05:41:05.375Z,100.00
2022-08-23T05:43:33.531Z,100.00
2022-08-23T05:46:01.671Z,100.00
2022-08-23T05:48:30.069Z,100.00
2022-08-23T05:50:56.383Z,100.00
2022-08-23T05:53:22.710Z,100.00
2022-08-23T05:55:49.043Z,100.00
2022-08-23T05:58:16.696Z,100.00
2022-08-23T06:00:43.058Z,100.00
2022-08-23T06:03:09.390Z,100.00
2022-08-23T06:05:38.332Z,100.00
2022-08-23T06:08:04.659Z,100.00
2022-08-23T06:10:30.966Z,100.00
2022-08-23T06:12:57.254Z,100.00
2022-08-23T06:15:24.929Z,100.00
2022-08-23T06:17:51.235Z,100.00
2022-08-23T06:20:17.665Z,100.00
2022-08-23T06:22:44.135Z,100.00
2022-08-23T06:25:10.454Z,100.00
2022-08-23T06:27:36.781Z,100.00
2022-08-23T06:30:03.208Z,100.00
2022-08-23T06:32:30.949Z,100.00
2022-08-23T06:35:33.115Z,100.00
2022-08-23T06:37:43.610Z,100.00
2022-08-23T06:40:10.242Z,100.00
2022-08-23T06:42:38.984Z,100.00
2022-08-23T06:45:05.960Z,100.00
2022-08-23T06:47:33.604Z,100.00
2022-08-23T06:49:59.910Z,100.00
2022-08-23T06:52:26.711Z,100.00
2022-08-23T06:54:53.255Z,100.00
2022-08-23T06:57:19.670Z,100.00
2022-08-23T06:59:45.986Z,100.00
2022-08-23T07:02:12.875Z,100.00
2022-08-23T07:04:41.058Z,100.00
2022-08-23T07:07:11.354Z,100.00
2022-08-23T07:09:38.116Z,100.00
2022-08-23T07:12:04.544Z,100.00
2022-08-23T07:14:30.936Z,100.00
2022-08-23T07:16:58.654Z,100.00
2022-08-23T07:19:29.271Z,100.00
2022-08-23T07:21:57.494Z,100.00
2022-08-23T07:24:23.966Z,100.00
2022-08-23T07:26:50.805Z,100.00
2022-08-23T07:29:17.174Z,100.00
2022-08-23T07:31:44.945Z,100.00
2022-08-23T07:34:11.295Z,100.00
2022-08-23T07:36:39.675Z,100.00
2022-08-23T07:39:07.799Z,100.00
2022-08-23T07:41:35.243Z,100.00
2022-08-23T07:44:02.868Z,100.00
2022-08-23T07:46:29.980Z,100.00
2022-08-23T07:48:56.979Z,100.00
2022-08-23T07:51:23.511Z,100.00
2022-08-23T07:53:49.844Z,100.00
2022-08-23T07:56:18.286Z,100.00
2022-08-23T07:58:44.671Z,100.00
2022-08-23T08:01:12.332Z,100.00
2022-08-23T08:03:38.987Z,100.00
2022-08-23T08:06:06.824Z,100.00
2022-08-23T08:08:33.180Z,100.00
2022-08-23T08:10:59.499Z,100.00
2022-08-23T08:13:27.201Z,100.00
2022-08-23T08:15:53.565Z,100.00
2022-08-23T08:18:19.891Z,100.00
2022-08-23T08:20:46.227Z,100.00
2022-08-23T08:23:12.544Z,100.00
2022-08-23T08:25:38.851Z,100.00
2022-08-23T08:28:05.201Z,100.00
2022-08-23T08:30:32.860Z,100.00
2022-08-23T08:32:59.329Z,100.00
2022-08-23T08:35:25.715Z,100.00
2022-08-23T08:37:52.162Z,100.00
2022-08-23T08:40:24.648Z,100.00
2022-08-23T08:42:59.678Z,100.00
2022-08-23T08:45:27.280Z,100.00
2022-08-23T08:47:59.108Z,100.00
2022-08-23T08:50:26.759Z,100.00
2022-08-23T08:52:56.827Z,100.00
2022-08-23T08:55:25.070Z,100.00
2022-08-23T08:57:52.066Z,100.00
2022-08-23T09:00:20.198Z,100.00
2022-08-23T09:02:46.539Z,100.00
2022-08-23T09:05:15.297Z,100.00
2022-08-23T09:07:46.611Z,100.00
2022-08-23T09:10:21.097Z,100.00
2022-08-23T09:12:51.075Z,100.00
2022-08-23T09:15:24.903Z,100.00
2022-08-23T09:17:52.611Z,100.00
2022-08-23T09:20:21.655Z,100.00
2022-08-23T09:22:49.369Z,100.00
2022-08-23T09:25:15.686Z,100.00
2022-08-23T09:27:42.785Z,100.00
2022-08-23T09:30:10.486Z,100.00
2022-08-23T09:32:37.826Z,100.00
2022-08-23T09:35:12.286Z,100.00
2022-08-23T09:37:48.327Z,100.00
2022-08-23T09:40:16.439Z,100.00
2022-08-23T09:42:43.282Z,100.00
2022-08-23T09:45:26.599Z,100.00
2022-08-23T09:47:53.083Z,100.00
2022-08-23T09:50:23.925Z,100.00
2022-08-23T09:52:54.704Z,100.00
2022-08-23T09:55:26.404Z,100.00
2022-08-23T09:57:53.063Z,100.00
2022-08-23T10:00:22.466Z,100.00
2022-08-23T10:02:48.849Z,100.00
2022-08-23T10:05:17.611Z,100.00
2022-08-23T10:07:44.918Z,100.00
2022-08-23T10:10:17.391Z,100.00
2022-08-23T10:12:43.711Z,100.00
2022-08-23T10:15:10.272Z,100.00
2022-08-23T10:17:39.932Z,100.00
2022-08-23T10:20:15.414Z,100.00
2022-08-23T10:22:43.699Z,100.00
2022-08-23T10:25:13.503Z,100.00
2022-08-23T10:27:44.859Z,100.00
2022-08-23T10:30:12.397Z,100.00
2022-08-23T10:32:45.337Z,100.00
2022-08-23T10:35:29.381Z,100.00
2022-08-23T10:38:03.583Z,100.00
2022-08-23T10:40:34.008Z,100.00
2022-08-23T10:43:08.167Z,100.00
2022-08-23T10:45:36.220Z,100.00
2022-08-23T10:48:14.191Z,100.00
2022-08-23T10:50:43.151Z,100.00
2022-08-23T10:53:11.910Z,100.00
2022-08-23T10:55:40.234Z,100.00
2022-08-23T10:58:11.356Z,100.00
2022-08-23T11:00:37.703Z,100.00
2022-08-23T11:03:10.495Z,100.00
2022-08-23T11:05:37.433Z,100.00
2022-08-23T11:08:05.251Z,100.00
2022-08-23T11:10:33.107Z,100.00
2022-08-23T11:13:01.538Z,100.00
2022-08-23T11:15:32.326Z,100.00
2022-08-23T11:18:00.848Z,100.00
2022-08-23T11:20:45.909Z,100.00
2022-08-23T11:23:13.674Z,100.00
2022-08-23T11:25:41.676Z,100.00
2022-08-23T11:28:22.903Z,100.00
2022-08-23T11:30:51.447Z,100.00
2022-08-23T11:33:21.260Z,100.00
2022-08-23T11:35:48.841Z,100.00
2022-08-23T11:38:22.424Z,100.00
2022-08-23T11:40:56.707Z,100.00
2022-08-23T11:43:25.370Z,100.00
2022-08-23T11:45:53.078Z,100.00
2022-08-23T11:48:23.048Z,100.00
2022-08-23T11:51:07.376Z,100.00
2022-08-23T11:53:49.970Z,100.00
2022-08-23T11:56:26.634Z,99.08
2022-08-23T11:59:03.515Z,95.76
2022-08-23T12:01:37.535Z,91.67
2022-08-23T12:04:05.348Z,90.46
2022-08-23T12:06:43.379Z,89.37
2022-08-23T12:09:35.616Z,84.62
2022-08-23T12:12:24.801Z,82.84
2022-08-23T12:14:53.510Z,83.33
2022-08-23T12:17:40.361Z,84.70
2022-08-23T12:20:16.792Z,80.72
2022-08-23T12:22:55.226Z,82.36
2022-08-23T12:25:22.006Z,86.51
2022-08-23T12:27:50.001Z,85.21
2022-08-23T12:30:18.328Z,87.74
2022-08-23T12:32:49.743Z,84.25
2022-08-23T12:35:27.912Z,88.50
2022-08-23T12:37:59.566Z,88.01
2022-08-23T12:40:27.894Z,92.73
2022-08-23T12:43:02.298Z,93.01
2022-08-23T12:45:35.793Z,90.87
2022-08-23T12:48:02.490Z,89.23
2022-08-23T12:50:32.581Z,87.69
2022-08-23T12:53:00.788Z,87.61
2022-08-23T12:55:30.254Z,88.93
2022-08-23T12:57:56.596Z,84.36
2022-08-23T13:00:24.620Z,93.18
2022-08-23T13:02:55.296Z,91.35
2022-08-23T13:05:26.982Z,94.09
2022-08-23T13:07:54.671Z,92.06
2022-08-23T13:10:21.126Z,94.09
2022-08-23T13:12:47.611Z,92.51
2022-08-23T13:15:31.789Z,86.70
2022-08-23T13:17:59.338Z,88.51
2022-08-23T13:20:25.764Z,88.05
2022-08-23T13:22:58.921Z,93.87
2022-08-23T13:25:29.839Z,86.29
2022-08-23T13:27:58.777Z,85.88
2022-08-23T13:30:25.865Z,87.58
2022-08-23T13:32:53.096Z,93.21
2022-08-23T13:35:29.418Z,91.68
2022-08-23T13:37:59.525Z,88.24
2022-08-23T13:40:27.480Z,91.63
2022-08-23T13:42:57.165Z,88.23
2022-08-23T13:45:25.751Z,88.95
2022-08-23T13:47:55.327Z,90.34
2022-08-23T13:50:23.055Z,83.62
2022-08-23T13:53:13.410Z,89.40
2022-08-23T13:55:41.238Z,89.64
2022-08-23T13:58:09.897Z,89.67
2022-08-23T14:00:36.514Z,84.87
2022-08-23T14:03:03.180Z,84.67
2022-08-23T14:05:29.641Z,87.88
2022-08-23T14:07:59.903Z,83.69
2022-08-23T14:10:26.986Z,87.47
2022-08-23T14:12:54.679Z,87.37
2022-08-23T14:15:54.238Z,86.25
2022-08-23T14:18:08.043Z,87.28
2022-08-23T14:20:44.034Z,85.50
2022-08-23T14:23:12.643Z,86.29
2022-08-23T14:25:39.120Z,85.50
2022-08-23T14:28:06.836Z,79.47
2022-08-23T14:30:34.468Z,78.97
2022-08-23T14:33:01.278Z,78.19
2022-08-23T14:35:27.786Z,79.58
2022-08-23T14:38:09.377Z,76.27
2022-08-23T14:40:36.148Z,75.97
2022-08-23T14:43:04.226Z,75.56
2022-08-23T14:45:32.453Z,76.78
2022-08-23T14:47:58.851Z,75.95
2022-08-23T14:50:25.204Z,77.90
2022-08-23T14:52:54.252Z,78.29
2022-08-23T14:55:24.719Z,79.55
2022-08-23T14:57:51.370Z,79.46
2022-08-23T15:00:17.787Z,80.77
2022-08-23T15:02:46.651Z,80.02
2022-08-23T15:05:13.347Z,82.04
2022-08-23T15:07:39.670Z,82.38
2022-08-23T15:10:07.142Z,82.33
2022-08-23T15:15:21.967Z,76.70
2022-08-23T15:17:51.896Z,78.08
2022-08-23T15:20:18.836Z,77.22
2022-08-23T15:22:52.368Z,78.78
2022-08-23T15:25:22.618Z,79.21
2022-08-23T15:27:50.211Z,78.89
2022-08-23T15:30:16.959Z,79.51
2022-08-23T15:32:52.099Z,79.52
2022-08-23T15:35:20.958Z,78.86
2022-08-23T15:37:47.595Z,80.91
2022-08-23T15:40:14.171Z,79.82
2022-08-23T15:42:40.631Z,81.23
2022-08-23T15:45:07.628Z,81.21
2022-08-23T15:47:40.573Z,82.28
2022-08-23T15:50:07.291Z,83.00
2022-08-23T15:52:34.930Z,79.96
2022-08-23T15:55:01.299Z,80.86
2022-08-23T15:57:28.264Z,80.66
2022-08-23T15:59:54.783Z,78.49
2022-08-23T16:02:21.115Z,80.62
2022-08-23T16:04:47.464Z,82.03
2022-08-23T16:07:15.785Z,83.34
2022-08-23T16:09:43.746Z,83.70
2022-08-23T16:12:10.051Z,85.07
2022-08-23T16:14:36.611Z,85.90
2022-08-23T16:17:03.280Z,87.33
2022-08-23T16:19:29.691Z,87.84
2022-08-23T16:21:56.027Z,89.17
2022-08-23T16:24:24.554Z,90.86
2022-08-23T16:26:52.508Z,90.84
2022-08-23T16:29:19.643Z,92.14
2022-08-23T16:31:46.467Z,91.80
2022-08-23T16:34:14.941Z,91.25
2022-08-23T16:36:43.511Z,92.63
2022-08-23T16:39:10.311Z,91.89
2022-08-23T16:41:36.625Z,91.46
2022-08-23T16:44:04.804Z,93.01
2022-08-23T16:46:31.162Z,94.11
2022-08-23T16:48:57.531Z,94.66
2022-08-23T16:51:24.121Z,92.81
2022-08-23T16:54:00.579Z,94.54
2022-08-23T16:56:29.683Z,95.47
2022-08-23T16:58:56.011Z,97.13
2022-08-23T17:01:23.859Z,96.75
2022-08-23T17:03:50.308Z,97.00
2022-08-23T17:06:16.630Z,98.09
2022-08-23T17:08:42.939Z,98.68
2022-08-23T17:11:10.554Z,99.63
2022-08-23T17:13:36.898Z,100.00
2022-08-23T17:16:03.473Z,100.00
2022-08-23T17:18:31.147Z,100.00
2022-08-23T17:20:57.500Z,100.00
2022-08-23T17:23:23.844Z,100.00
2022-08-23T17:25:50.188Z,100.00
2022-08-23T17:28:17.216Z,100.00
2022-08-23T17:30:43.784Z,100.00
2022-08-23T17:33:10.086Z,100.00
2022-08-23T17:35:37.770Z,100.00
2022-08-23T17:38:05.320Z,100.00
2022-08-23T17:40:33.488Z,100.00
2022-08-23T17:43:00.253Z,100.00
2022-08-23T17:45:27.400Z,100.00
2022-08-23T17:47:53.959Z,100.00
2022-08-23T17:50:20.849Z,100.00
2022-08-23T17:52:48.500Z,100.00
2022-08-23T17:55:14.874Z,100.00
2022-08-23T17:57:41.184Z,100.00
2022-08-23T18:00:07.975Z,100.00
2022-08-23T18:02:34.332Z,100.00
2022-08-23T18:05:00.684Z,100.00
2022-08-23T18:07:27.162Z,100.00
2022-08-23T18:09:54.815Z,100.00
2022-08-23T18:12:21.159Z,100.00
2022-08-23T18:14:47.575Z,100.00
2022-08-23T18:17:13.902Z,100.00
2022-08-23T18:19:40.241Z,100.00
2022-08-23T18:22:06.591Z,100.00
2022-08-23T18:24:32.920Z,100.00
2022-08-23T18:27:00.701Z,100.00
2022-08-23T18:29:27.558Z,100.00
2022-08-23T18:31:53.963Z,100.00
2022-08-23T18:34:20.767Z,100.00
2022-08-23T18:36:47.139Z,100.00
2022-08-23T18:39:14.225Z,100.00
2022-08-23T18:41:40.948Z,100.00
2022-08-23T18:44:09.011Z,100.00
2022-08-23T18:46:38.911Z,100.00
2022-08-23T18:49:06.266Z,100.00
2022-08-23T18:51:32.583Z,100.00
2022-08-23T18:53:59.378Z,100.00
2022-08-23T18:56:25.690Z,100.00
2022-08-23T18:58:52.323Z,100.00
2022-08-23T19:01:24.267Z,100.00
2022-08-23T19:03:51.098Z,100.00
2022-08-23T19:06:17.539Z,100.00
2022-08-23T19:08:43.897Z,100.00
2022-08-23T19:11:10.572Z,100.00
2022-08-23T19:13:37.010Z,100.00
2022-08-23T19:16:03.541Z,100.00
2022-08-23T19:18:31.234Z,100.00
2022-08-23T19:20:57.542Z,100.00
2022-08-23T19:23:23.863Z,100.00
2022-08-23T19:25:50.226Z,100.00
2022-08-23T19:28:16.563Z,100.00
2022-08-23T19:30:43.003Z,100.00
2022-08-23T19:33:09.348Z,100.00
2022-08-23T19:35:37.033Z,100.00
2022-08-23T19:38:03.379Z,100.00
2022-08-23T19:40:29.804Z,100.00
2022-08-23T19:42:56.149Z,100.00
2022-08-23T19:45:22.497Z,100.00
2022-08-23T19:47:48.859Z,100.00
2022-08-23T19:50:15.179Z,100.00
2022-08-23T19:52:51.590Z,100.00
2022-08-23T19:55:18.018Z,100.00
2022-08-23T19:57:44.347Z,100.00
2022-08-23T20:00:15.706Z,100.00
2022-08-23T20:02:44.983Z,100.00
2022-08-23T20:05:11.283Z,100.00
2022-08-23T20:07:37.670Z,100.00
2022-08-23T20:10:06.724Z,100.00
2022-08-23T20:12:33.123Z,100.00
2022-08-23T20:14:59.439Z,100.00
2022-08-23T20:17:25.906Z,100.00
2022-08-23T20:19:52.371Z,100.00
2022-08-23T20:22:18.904Z,100.00
2022-08-23T20:24:53.349Z,100.00
2022-08-23T20:27:30.271Z,100.00
2022-08-23T20:29:57.687Z,100.00
2022-08-23T20:32:24.091Z,100.00
2022-08-23T20:34:50.426Z,100.00
2022-08-23T20:37:16.755Z,100.00
2022-08-23T20:39:43.127Z,100.00
2022-08-23T20:42:09.625Z,100.00
2022-08-23T20:44:37.350Z,100.00
2022-08-23T20:47:03.851Z,100.00
2022-08-23T20:49:30.276Z,100.00
2022-08-23T20:51:56.610Z,100.00
2022-08-23T20:54:22.976Z,100.00
2022-08-23T20:56:50.199Z,100.00
2022-08-23T20:59:16.529Z,100.00
2022-08-23T21:01:44.356Z,100.00
2022-08-23T21:04:10.739Z,100.00
2022-08-23T21:06:38.235Z,100.00
2022-08-23T21:09:04.642Z,100.00
2022-08-23T21:11:30.949Z,100.00
2022-08-23T21:13:57.331Z,100.00
2022-08-23T21:16:23.931Z,100.00
2022-08-23T21:18:51.590Z,100.00
2022-08-23T21:21:21.754Z,100.00
2022-08-23T21:23:48.356Z,100.00
2022-08-23T21:26:14.678Z,100.00
2022-08-23T21:28:41.171Z,100.00
2022-08-23T21:31:07.867Z,100.00
2022-08-23T21:33:39.305Z,100.00
2022-08-23T21:36:08.471Z,100.00
2022-08-23T21:38:34.915Z,100.00
2022-08-23T21:41:02.976Z,100.00
2022-08-23T21:43:29.670Z,100.00
2022-08-23T21:45:56.039Z,100.00
2022-08-23T21:48:22.910Z,100.00
2022-08-23T21:50:49.223Z,100.00
2022-08-23T21:53:17.328Z,100.00
2022-08-23T21:55:44.046Z,100.00
2022-08-23T21:58:12.527Z,100.00
2022-08-23T22:00:39.559Z,100.00
2022-08-23T22:03:06.178Z,100.00
2022-08-23T22:05:32.702Z,100.00
2022-08-23T22:07:59.002Z,100.00
2022-08-23T22:10:26.643Z,100.00
2022-08-23T22:12:52.974Z,100.00
2022-08-23T22:15:19.282Z,100.00
2022-08-23T22:17:45.595Z,100.00
2022-08-23T22:20:11.911Z,100.00
2022-08-23T22:22:38.310Z,100.00
2022-08-23T22:25:05.152Z,100.00
2022-08-23T22:27:32.819Z,100.00
2022-08-23T22:29:59.143Z,100.00
2022-08-23T22:32:25.470Z,100.00
2022-08-23T22:34:51.776Z,100.00
2022-08-23T22:37:18.095Z,100.00
2022-08-23T22:39:44.419Z,100.00
2022-08-23T22:42:10.782Z,100.00
2022-08-23T22:44:38.418Z,100.00
2022-08-23T22:47:04.902Z,100.00
2022-08-23T22:49:31.229Z,100.00
2022-08-23T22:51:57.566Z,100.00
2022-08-23T22:54:23.929Z,100.00
2022-08-23T22:56:51.042Z,100.00
2022-08-23T22:59:18.146Z,100.00
2022-08-23T23:01:47.718Z,100.00
2022-08-23T23:04:14.682Z,100.00
2022-08-23T23:06:41.070Z,100.00
2022-08-23T23:09:08.242Z,100.00
2022-08-23T23:11:34.997Z,100.00
2022-08-23T23:14:01.578Z,100.00
2022-08-23T23:16:28.731Z,100.00
2022-08-23T23:18:56.944Z,100.00
2022-08-23T23:21:23.259Z,100.00
2022-08-23T23:23:49.580Z,100.00
2022-08-23T23:26:15.883Z,100.00
2022-08-23T23:28:42.198Z,100.00
2022-08-23T23:31:08.935Z,100.00
2022-08-23T23:33:35.258Z,100.00
2022-08-23T23:36:03.285Z,100.00
2022-08-23T23:38:29.623Z,100.00
2022-08-23T23:40:55.927Z,100.00
2022-08-23T23:43:22.231Z,100.00
2022-08-23T23:45:48.585Z,100.00
2022-08-23T23:48:15.017Z,100.00
2022-08-23T23:50:45.335Z,100.00
2022-08-23T23:53:14.566Z,100.00
2022-08-23T23:55:41.026Z,100.00
2022-08-23T23:58:07.339Z,100.00
